createdAt,value
2018-04-16T00:00:39.490Z,0.00
2018-04-16T00:01:38.481Z,0.00
2018-04-16T00:02:38.985Z,0.00
2018-04-16T00:03:38.425Z,0.00
2018-04-16T00:04:38.435Z,0.00
2018-04-16T00:05:38.371Z,0.00
2018-04-16T00:06:38.537Z,0.00
2018-04-16T00:07:38.320Z,0.00
2018-04-16T00:08:38.986Z,0.00
2018-04-16T00:09:38.277Z,0.00
2018-04-16T00:10:38.990Z,0.00
2018-04-16T00:11:38.248Z,0.00
2018-04-16T00:12:38.986Z,0.00
2018-04-16T00:13:38.154Z,0.00
2018-04-16T00:14:38.125Z,0.00
2018-04-16T00:15:38.113Z,0.00
2018-04-16T00:16:38.549Z,0.00
2018-04-16T00:17:38.049Z,0.00
2018-04-16T00:18:38.988Z,0.00
2018-04-16T00:19:37.993Z,0.00
2018-04-16T00:20:37.966Z,0.00
2018-04-16T00:21:38.042Z,0.00
2018-04-16T00:22:37.913Z,0.00
2018-04-16T00:23:37.885Z,0.00
2018-04-16T00:24:38.041Z,0.00
2018-04-16T00:25:37.836Z,0.00
2018-04-16T00:26:37.806Z,0.00
2018-04-16T00:27:38.486Z,0.00
2018-04-16T00:28:37.751Z,0.00
2018-04-16T00:29:38.035Z,0.00
2018-04-16T00:30:37.706Z,0.00
2018-04-16T00:31:37.716Z,0.00
2018-04-16T00:32:38.492Z,0.00
2018-04-16T00:33:37.621Z,0.00
2018-04-16T00:34:38.490Z,0.00
2018-04-16T00:35:37.602Z,0.00
2018-04-16T00:36:37.588Z,0.00
2018-04-16T00:37:38.490Z,0.00
2018-04-16T00:38:37.481Z,0.00
2018-04-16T00:39:37.992Z,0.00
2018-04-16T00:40:37.472Z,0.00
2018-04-16T00:41:37.534Z,0.00
2018-04-16T00:42:37.376Z,0.00
2018-04-16T00:43:37.987Z,0.00
2018-04-16T00:44:37.351Z,0.00
2018-04-16T00:45:40.000Z,0.00
2018-04-16T00:46:37.319Z,0.00
2018-04-16T00:47:37.549Z,0.00
2018-04-16T00:48:37.274Z,0.00
2018-04-16T00:49:37.188Z,0.00
2018-04-16T00:50:37.987Z,0.00
2018-04-16T00:51:37.174Z,0.00
2018-04-16T00:52:37.996Z,0.00
2018-04-16T00:53:37.086Z,0.00
2018-04-16T00:54:37.054Z,0.00
2018-04-16T00:55:37.991Z,0.00
2018-04-16T00:56:37.047Z,0.00
2018-04-16T00:57:36.969Z,0.00
2018-04-16T00:58:37.487Z,0.00
2018-04-16T00:59:36.920Z,0.00
2018-04-16T01:00:36.893Z,0.00
2018-04-16T01:01:37.053Z,0.00
2018-04-16T01:02:36.840Z,0.00
2018-04-16T01:03:37.490Z,0.00
2018-04-16T01:04:36.805Z,0.00
2018-04-16T01:05:36.764Z,0.00
2018-04-16T01:06:36.773Z,0.00
2018-04-16T01:07:36.703Z,0.00
2018-04-16T01:08:37.492Z,0.00
2018-04-16T01:09:36.650Z,0.00
2018-04-16T01:10:37.038Z,0.00
2018-04-16T01:11:36.597Z,0.00
2018-04-16T01:12:37.037Z,0.00
2018-04-16T01:13:36.567Z,0.00
2018-04-16T01:14:37.495Z,0.00
2018-04-16T01:15:36.488Z,0.00
2018-04-16T01:16:36.464Z,0.00
2018-04-16T01:17:36.538Z,0.00
2018-04-16T01:18:36.454Z,0.00
2018-04-16T01:19:37.004Z,0.00
2018-04-16T01:20:36.351Z,0.00
2018-04-16T01:21:36.991Z,0.00
2018-04-16T01:22:36.307Z,0.00
2018-04-16T01:23:36.320Z,0.00
2018-04-16T01:24:36.995Z,0.00
2018-04-16T01:25:36.253Z,0.00
2018-04-16T01:26:36.189Z,0.00
2018-04-16T01:27:36.166Z,0.00
2018-04-16T01:28:36.989Z,0.00
2018-04-16T01:29:36.159Z,0.00
2018-04-16T01:30:36.995Z,0.00
2018-04-16T01:31:36.064Z,0.00
2018-04-16T01:32:36.994Z,0.00
2018-04-16T01:33:36.048Z,0.00
2018-04-16T01:34:36.051Z,0.00
2018-04-16T01:35:35.954Z,0.00
2018-04-16T01:36:36.497Z,0.00
2018-04-16T01:37:35.898Z,0.00
2018-04-16T01:38:36.509Z,0.00
2018-04-16T01:39:35.918Z,0.00
2018-04-16T01:40:36.516Z,0.00
2018-04-16T01:41:35.795Z,0.00
2018-04-16T01:42:36.508Z,0.00
2018-04-16T01:43:35.737Z,0.00
2018-04-16T01:44:35.741Z,0.00
2018-04-16T01:45:36.058Z,0.00
2018-04-16T01:46:35.663Z,0.00
2018-04-16T01:47:36.507Z,0.00
2018-04-16T01:48:35.605Z,0.00
2018-04-16T01:49:36.499Z,0.00
2018-04-16T01:50:35.587Z,0.00
2018-04-16T01:51:36.059Z,0.00
2018-04-16T01:52:35.492Z,0.00
2018-04-16T01:53:35.475Z,0.00
2018-04-16T01:54:35.996Z,0.00
2018-04-16T01:55:35.410Z,0.00
2018-04-16T01:56:35.543Z,0.00
2018-04-16T01:57:35.406Z,0.00
2018-04-16T01:58:35.328Z,0.00
2018-04-16T01:59:35.308Z,0.00
2018-04-16T02:00:35.321Z,0.00
2018-04-16T02:01:36.001Z,0.00
2018-04-16T02:02:35.234Z,0.00
2018-04-16T02:03:35.194Z,0.00
2018-04-16T02:04:36.003Z,0.00
2018-04-16T02:05:35.180Z,0.00
2018-04-16T02:06:36.010Z,0.00
2018-04-16T02:07:35.094Z,0.00
2018-04-16T02:08:36.914Z,0.00
2018-04-16T02:09:35.042Z,0.00
2018-04-16T02:10:35.065Z,0.00
2018-04-16T02:11:34.983Z,0.00
2018-04-16T02:12:34.972Z,0.00
2018-04-16T02:13:35.504Z,0.00
2018-04-16T02:14:34.908Z,0.00
2018-04-16T02:15:34.925Z,0.00
2018-04-16T02:16:35.511Z,0.00
2018-04-16T02:17:34.822Z,0.00
2018-04-16T02:18:35.550Z,0.00
2018-04-16T02:19:34.767Z,0.00
2018-04-16T02:20:35.507Z,0.00
2018-04-16T02:21:34.759Z,0.00
2018-04-16T02:22:35.501Z,0.00
2018-04-16T02:23:34.693Z,0.00
2018-04-16T02:24:34.632Z,0.00
2018-04-16T02:25:35.506Z,0.00
2018-04-16T02:26:34.585Z,0.00
2018-04-16T02:27:35.055Z,0.00
2018-04-16T02:28:34.532Z,0.00
2018-04-16T02:29:35.007Z,0.00
2018-04-16T02:30:34.504Z,0.00
2018-04-16T02:31:34.447Z,0.00
2018-04-16T02:32:35.004Z,0.00
2018-04-16T02:33:34.393Z,0.00
2018-04-16T02:34:35.003Z,0.00
2018-04-16T02:35:34.381Z,0.00
2018-04-16T02:36:35.009Z,0.00
2018-04-16T02:37:34.285Z,0.00
2018-04-16T02:38:34.559Z,0.00
2018-04-16T02:39:34.231Z,0.00
2018-04-16T02:40:34.562Z,0.00
2018-04-16T02:41:34.175Z,0.00
2018-04-16T02:42:35.004Z,0.00
2018-04-16T02:43:34.127Z,0.00
2018-04-16T02:44:35.014Z,0.00
2018-04-16T02:45:34.108Z,0.00
2018-04-16T02:46:34.088Z,0.00
2018-04-16T02:47:35.006Z,0.00
2018-04-16T02:48:34.025Z,0.00
2018-04-16T02:49:33.966Z,0.00
2018-04-16T02:50:34.066Z,0.00
2018-04-16T02:51:33.915Z,0.00
2018-04-16T02:52:34.509Z,0.00
2018-04-16T02:53:33.857Z,0.00
2018-04-16T02:54:33.831Z,0.00
2018-04-16T02:55:34.056Z,0.00
2018-04-16T02:56:33.776Z,0.00
2018-04-16T02:57:34.507Z,0.00
2018-04-16T02:58:33.760Z,0.00
2018-04-16T02:59:34.512Z,0.00
2018-04-16T03:00:33.668Z,0.00
2018-04-16T03:01:33.642Z,0.00
2018-04-16T03:02:34.506Z,0.00
2018-04-16T03:03:33.631Z,0.00
2018-04-16T03:04:34.054Z,0.00
2018-04-16T03:05:33.535Z,0.00
2018-04-16T03:06:33.506Z,0.00
2018-04-16T03:07:33.482Z,0.00
2018-04-16T03:08:34.010Z,0.00
2018-04-16T03:09:33.461Z,0.00
2018-04-16T03:10:34.028Z,0.00
2018-04-16T03:11:33.400Z,0.00
2018-04-16T03:12:34.009Z,0.00
2018-04-16T03:13:33.319Z,0.00
2018-04-16T03:14:33.562Z,0.00
2018-04-16T03:15:33.266Z,0.00
2018-04-16T03:16:33.237Z,0.00
2018-04-16T03:17:33.251Z,0.00
2018-04-16T03:18:33.189Z,0.00
2018-04-16T03:19:33.163Z,0.00
2018-04-16T03:20:33.136Z,0.00
2018-04-16T03:21:33.106Z,0.00
2018-04-16T03:22:33.118Z,0.00
2018-04-16T03:23:33.054Z,0.00
2018-04-16T03:24:33.032Z,0.00
2018-04-16T03:25:32.995Z,0.00
2018-04-16T03:26:32.967Z,0.00
2018-04-16T03:27:32.972Z,0.00
2018-04-16T03:28:32.916Z,0.00
2018-04-16T03:29:32.892Z,0.00
2018-04-16T03:30:32.881Z,0.00
2018-04-16T03:31:32.844Z,0.00
2018-04-16T03:32:32.849Z,0.00
2018-04-16T03:33:32.783Z,0.00
2018-04-16T03:34:32.761Z,0.00
2018-04-16T03:35:32.732Z,0.00
2018-04-16T03:36:32.702Z,0.00
2018-04-16T03:37:32.719Z,0.00
2018-04-16T03:38:32.645Z,0.00
2018-04-16T03:39:32.620Z,0.00
2018-04-16T03:40:32.595Z,0.00
2018-04-16T03:41:32.565Z,0.00
2018-04-16T03:42:32.587Z,0.00
2018-04-16T03:43:32.509Z,4.00
2018-04-16T03:44:32.491Z,4.00
2018-04-16T03:45:32.461Z,4.00
2018-04-16T03:46:32.430Z,0.00
2018-04-16T03:47:32.437Z,4.00
2018-04-16T03:48:32.378Z,4.00
2018-04-16T03:49:32.348Z,8.00
2018-04-16T03:50:32.319Z,4.00
2018-04-16T03:51:32.301Z,8.00
2018-04-16T03:52:32.317Z,4.00
2018-04-16T03:53:32.243Z,8.00
2018-04-16T03:54:32.224Z,8.00
2018-04-16T03:55:32.188Z,12.00
2018-04-16T03:56:32.196Z,12.00
2018-04-16T03:57:32.137Z,16.00
2018-04-16T03:58:32.114Z,20.00
2018-04-16T03:59:32.171Z,20.00
2018-04-16T04:00:32.056Z,20.00
2018-04-16T04:01:32.026Z,24.00
2018-04-16T04:02:32.003Z,24.00
2018-04-16T04:03:31.977Z,28.00
2018-04-16T04:04:31.982Z,32.00
2018-04-16T04:05:31.921Z,32.00
2018-04-16T04:06:31.894Z,32.00
2018-04-16T04:07:31.873Z,40.00
2018-04-16T04:08:31.875Z,40.00
2018-04-16T04:09:31.816Z,44.00
2018-04-16T04:10:31.784Z,48.00
2018-04-16T04:11:31.756Z,52.00
2018-04-16T04:12:31.734Z,56.00
2018-04-16T04:13:31.747Z,60.00
2018-04-16T04:14:31.677Z,64.00
2018-04-16T04:15:31.659Z,68.00
2018-04-16T04:16:31.630Z,72.00
2018-04-16T04:17:31.599Z,76.00
2018-04-16T04:18:31.610Z,80.00
2018-04-16T04:19:31.592Z,88.00
2018-04-16T04:20:31.561Z,88.00
2018-04-16T04:21:31.498Z,96.00
2018-04-16T04:22:31.481Z,104.00
2018-04-16T04:23:31.436Z,112.00
2018-04-16T04:24:31.447Z,124.00
2018-04-16T04:25:31.379Z,136.00
2018-04-16T04:26:31.353Z,148.00
2018-04-16T04:27:31.364Z,160.00
2018-04-16T04:28:31.299Z,168.00
2018-04-16T04:29:31.281Z,180.00
2018-04-16T04:30:31.248Z,196.00
2018-04-16T04:31:31.270Z,216.00
2018-04-16T04:32:31.196Z,232.00
2018-04-16T04:33:31.171Z,252.00
2018-04-16T04:34:31.141Z,260.00
2018-04-16T04:35:31.150Z,260.00
2018-04-16T04:36:31.146Z,256.00
2018-04-16T04:37:31.099Z,256.00
2018-04-16T04:38:31.037Z,260.00
2018-04-16T04:39:31.006Z,260.00
2018-04-16T04:40:30.980Z,264.00
2018-04-16T04:41:31.004Z,260.00
2018-04-16T04:42:30.926Z,256.00
2018-04-16T04:43:30.900Z,268.00
2018-04-16T04:44:30.876Z,276.00
2018-04-16T04:45:30.850Z,300.00
2018-04-16T04:46:30.858Z,328.00
2018-04-16T04:47:30.802Z,356.00
2018-04-16T04:48:30.765Z,380.00
2018-04-16T04:49:30.740Z,400.00
2018-04-16T04:50:30.765Z,420.00
2018-04-16T04:51:30.687Z,436.00
2018-04-16T04:52:30.664Z,456.00
2018-04-16T04:53:30.637Z,484.00
2018-04-16T04:54:30.615Z,508.00
2018-04-16T04:55:30.618Z,528.00
2018-04-16T04:56:30.595Z,552.00
2018-04-16T04:57:30.528Z,568.00
2018-04-16T04:58:30.550Z,584.00
2018-04-16T04:59:30.518Z,604.00
2018-04-16T05:00:30.445Z,624.00
2018-04-16T05:01:30.545Z,648.00
2018-04-16T05:02:30.396Z,672.00
2018-04-16T05:03:30.364Z,696.00
2018-04-16T05:04:30.338Z,716.00
2018-04-16T05:05:30.353Z,732.00
2018-04-16T05:06:30.335Z,752.00
2018-04-16T05:07:30.280Z,772.00
2018-04-16T05:08:30.228Z,792.00
2018-04-16T05:09:30.206Z,812.00
2018-04-16T05:10:30.187Z,832.00
2018-04-16T05:11:30.196Z,864.00
2018-04-16T05:12:30.131Z,908.00
2018-04-16T05:13:30.104Z,956.00
2018-04-16T05:14:30.066Z,1000.00
2018-04-16T05:15:30.042Z,1024.00
2018-04-16T05:16:30.056Z,1028.00
2018-04-16T05:17:29.996Z,1004.00
2018-04-16T05:18:29.960Z,960.00
2018-04-16T05:19:29.932Z,908.00
2018-04-16T05:20:29.901Z,864.00
2018-04-16T05:21:30.090Z,844.00
2018-04-16T05:22:30.933Z,840.00
2018-04-16T05:23:29.820Z,852.00
2018-04-16T05:24:29.793Z,868.00
2018-04-16T05:25:29.771Z,884.00
2018-04-16T05:26:29.743Z,912.00
2018-04-16T05:27:29.761Z,956.00
2018-04-16T05:28:29.697Z,1012.00
2018-04-16T05:29:29.667Z,1084.00
2018-04-16T05:30:29.636Z,1156.00
2018-04-16T05:31:29.648Z,1224.00
2018-04-16T05:32:29.647Z,1276.00
2018-04-16T05:33:29.555Z,1316.00
2018-04-16T05:34:29.526Z,1344.00
2018-04-16T05:35:29.539Z,1372.00
2018-04-16T05:36:29.475Z,1412.00
2018-04-16T05:37:29.485Z,1444.00
2018-04-16T05:38:29.414Z,1484.00
2018-04-16T05:39:29.400Z,1524.00
2018-04-16T05:40:29.362Z,1568.00
2018-04-16T05:41:29.349Z,1616.00
2018-04-16T05:42:29.377Z,1660.00
2018-04-16T05:43:29.289Z,1684.00
2018-04-16T05:44:29.255Z,1688.00
2018-04-16T05:45:29.232Z,1696.00
2018-04-16T05:46:29.199Z,1732.00
2018-04-16T05:47:29.199Z,1816.00
2018-04-16T05:48:29.180Z,1936.00
2018-04-16T05:49:29.169Z,2048.00
2018-04-16T05:50:29.090Z,2132.00
2018-04-16T05:51:29.095Z,2164.00
2018-04-16T05:52:29.061Z,2184.00
2018-04-16T05:53:29.007Z,2208.00
2018-04-16T05:54:29.028Z,2244.00
2018-04-16T05:55:28.955Z,2268.00
2018-04-16T05:56:28.929Z,2272.00
2018-04-16T05:57:29.567Z,2264.00
2018-04-16T05:58:28.873Z,2264.00
2018-04-16T05:59:28.880Z,2284.00
2018-04-16T06:00:28.815Z,2332.00
2018-04-16T06:01:28.837Z,2396.00
2018-04-16T06:02:28.766Z,2488.00
2018-04-16T06:03:28.737Z,2604.00
2018-04-16T06:04:28.710Z,2760.00
2018-04-16T06:05:28.739Z,2920.00
2018-04-16T06:06:28.660Z,3024.00
2018-04-16T06:07:28.653Z,3048.00
2018-04-16T06:08:28.611Z,3024.00
2018-04-16T06:09:28.581Z,3020.00
2018-04-16T06:10:28.592Z,3060.00
2018-04-16T06:11:28.522Z,3208.00
2018-04-16T06:12:28.500Z,3468.00
2018-04-16T06:13:28.483Z,3816.00
2018-04-16T06:14:28.440Z,4188.00
2018-04-16T06:15:28.465Z,4508.00
2018-04-16T06:16:28.388Z,4740.00
2018-04-16T06:17:28.371Z,4892.00
2018-04-16T06:18:28.334Z,4980.00
2018-04-16T06:19:28.311Z,5048.00
2018-04-16T06:20:28.329Z,5136.00
2018-04-16T06:21:28.261Z,5240.00
2018-04-16T06:22:28.229Z,5252.00
2018-04-16T06:23:28.260Z,5100.00
2018-04-16T06:24:28.182Z,4856.00
2018-04-16T06:25:28.151Z,4644.00
2018-04-16T06:26:28.126Z,4504.00
2018-04-16T06:27:28.163Z,4428.00
2018-04-16T06:28:28.104Z,4376.00
2018-04-16T06:29:28.045Z,4308.00
2018-04-16T06:30:28.028Z,4228.00
2018-04-16T06:31:27.991Z,4136.00
2018-04-16T06:32:28.004Z,4064.00
2018-04-16T06:33:27.941Z,4016.00
2018-04-16T06:34:27.913Z,3956.00
2018-04-16T06:35:27.888Z,3852.00
2018-04-16T06:36:27.861Z,3684.00
2018-04-16T06:37:27.880Z,3488.00
2018-04-16T06:38:27.808Z,3292.00
2018-04-16T06:39:27.784Z,3124.00
2018-04-16T06:40:27.766Z,3012.00
2018-04-16T06:41:27.743Z,2948.00
2018-04-16T06:42:27.763Z,2920.00
2018-04-16T06:43:27.691Z,2904.00
2018-04-16T06:44:27.659Z,2876.00
2018-04-16T06:45:27.669Z,2848.00
2018-04-16T06:46:27.601Z,2832.00
2018-04-16T06:47:27.587Z,2836.00
2018-04-16T06:48:27.548Z,2864.00
2018-04-16T06:49:27.551Z,2924.00
2018-04-16T06:50:27.495Z,3008.00
2018-04-16T06:51:27.474Z,3104.00
2018-04-16T06:52:27.448Z,3196.00
2018-04-16T06:53:27.425Z,3296.00
2018-04-16T06:54:27.432Z,3396.00
2018-04-16T06:55:27.407Z,3468.00
2018-04-16T06:56:27.339Z,3500.00
2018-04-16T06:57:27.319Z,3508.00
2018-04-16T06:58:27.342Z,3512.00
2018-04-16T06:59:27.264Z,3516.00
2018-04-16T07:00:27.286Z,3532.00
2018-04-16T07:01:27.219Z,3548.00
2018-04-16T07:02:27.191Z,3556.00
2018-04-16T07:03:27.196Z,3556.00
2018-04-16T07:04:27.191Z,3540.00
2018-04-16T07:05:27.112Z,3508.00
2018-04-16T07:06:27.090Z,3468.00
2018-04-16T07:07:27.056Z,3428.00
2018-04-16T07:08:27.065Z,3364.00
2018-04-16T07:09:27.049Z,3320.00
2018-04-16T07:10:26.985Z,3288.00
2018-04-16T07:11:26.991Z,3292.00
2018-04-16T07:12:26.927Z,3296.00
2018-04-16T07:13:26.897Z,3304.00
2018-04-16T07:14:26.914Z,3308.00
2018-04-16T07:15:26.852Z,3300.00
2018-04-16T07:16:26.861Z,3324.00
2018-04-16T07:17:26.791Z,3344.00
2018-04-16T07:18:26.783Z,3396.00
2018-04-16T07:19:26.783Z,3444.00
2018-04-16T07:20:26.717Z,3472.00
2018-04-16T07:21:26.705Z,3528.00
2018-04-16T07:22:26.666Z,3588.00
2018-04-16T07:23:26.678Z,3640.00
2018-04-16T07:24:26.607Z,3672.00
2018-04-16T07:25:27.087Z,3696.00
2018-04-16T07:26:26.568Z,3672.00
2018-04-16T07:27:26.565Z,3628.00
2018-04-16T07:28:26.557Z,3588.00
2018-04-16T07:29:26.480Z,3544.00
2018-04-16T07:30:26.453Z,3576.00
2018-04-16T07:31:26.427Z,3536.00
2018-04-16T07:32:26.405Z,3668.00
2018-04-16T07:33:26.411Z,3788.00
2018-04-16T07:34:26.344Z,3796.00
2018-04-16T07:35:26.328Z,3836.00
2018-04-16T07:36:26.367Z,3792.00
2018-04-16T07:37:26.262Z,3764.00
2018-04-16T07:38:26.237Z,3708.00
2018-04-16T07:39:26.210Z,3628.00
2018-04-16T07:40:26.189Z,3640.00
2018-04-16T07:41:26.196Z,3572.00
2018-04-16T07:42:26.174Z,3644.00
2018-04-16T07:43:26.109Z,3616.00
2018-04-16T07:44:26.133Z,3656.00
2018-04-16T07:45:26.050Z,3676.00
2018-04-16T07:46:26.035Z,3680.00
2018-04-16T07:47:26.003Z,3844.00
2018-04-16T07:48:25.975Z,4164.00
2018-04-16T07:49:25.989Z,4228.00
2018-04-16T07:50:25.952Z,4364.00
2018-04-16T07:51:25.897Z,4364.00
2018-04-16T07:52:25.870Z,4352.00
2018-04-16T07:53:25.845Z,4192.00
2018-04-16T07:54:25.817Z,4460.00
2018-04-16T07:55:25.831Z,4344.00
2018-04-16T07:56:25.758Z,4264.00
2018-04-16T07:57:25.743Z,4252.00
2018-04-16T07:58:25.711Z,4308.00
2018-04-16T07:59:25.686Z,4624.00
2018-04-16T08:00:25.698Z,4964.00
2018-04-16T08:01:25.652Z,5136.00
2018-04-16T08:02:25.600Z,5424.00
2018-04-16T08:03:25.582Z,5964.00
2018-04-16T08:04:25.590Z,6136.00
2018-04-16T08:05:25.524Z,6348.00
2018-04-16T08:06:25.498Z,6628.00
2018-04-16T08:07:25.510Z,6932.00
2018-04-16T08:08:25.441Z,7084.00
2018-04-16T08:09:25.417Z,7328.00
2018-04-16T08:10:25.392Z,7480.00
2018-04-16T08:11:25.363Z,7776.00
2018-04-16T08:12:25.392Z,8016.00
2018-04-16T08:13:25.313Z,8040.00
2018-04-16T08:14:25.281Z,7832.00
2018-04-16T08:15:25.257Z,7628.00
2018-04-16T08:16:25.227Z,7440.00
2018-04-16T08:17:25.240Z,7208.00
2018-04-16T08:18:25.177Z,7032.00
2018-04-16T08:19:25.155Z,7088.00
2018-04-16T08:20:25.165Z,7048.00
2018-04-16T08:21:25.097Z,7208.00
2018-04-16T08:22:25.074Z,7116.00
2018-04-16T08:23:25.082Z,7264.00
2018-04-16T08:24:25.023Z,7236.00
2018-04-16T08:25:25.037Z,6956.00
2018-04-16T08:26:24.967Z,6768.00
2018-04-16T08:27:24.941Z,6768.00
2018-04-16T08:28:24.913Z,6904.00
2018-04-16T08:29:24.901Z,7032.00
2018-04-16T08:30:24.931Z,7284.00
2018-04-16T08:31:24.836Z,7600.00
2018-04-16T08:32:24.808Z,7764.00
2018-04-16T08:33:24.784Z,7728.00
2018-04-16T08:34:24.754Z,7604.00
2018-04-16T08:35:24.779Z,7560.00
2018-04-16T08:36:24.706Z,7524.00
2018-04-16T08:37:24.680Z,7588.00
2018-04-16T08:38:24.650Z,7748.00
2018-04-16T08:39:24.629Z,8008.00
2018-04-16T08:40:24.646Z,8276.00
2018-04-16T08:41:24.570Z,8312.00
2018-04-16T08:42:24.548Z,8084.00
2018-04-16T08:43:24.537Z,7692.00
2018-04-16T08:44:24.506Z,7276.00
2018-04-16T08:45:24.511Z,6892.00
2018-04-16T08:46:24.450Z,6564.00
2018-04-16T08:47:24.463Z,6372.00
2018-04-16T08:48:24.393Z,6396.00
2018-04-16T08:49:24.599Z,6652.00
2018-04-16T08:50:24.337Z,7176.00
2018-04-16T08:51:24.311Z,7928.00
2018-04-16T08:52:24.333Z,8732.00
2018-04-16T08:53:24.266Z,9484.00
2018-04-16T08:54:24.273Z,9880.00
2018-04-16T08:55:24.207Z,9964.00
2018-04-16T08:56:24.231Z,9760.00
2018-04-16T08:57:24.161Z,9208.00
2018-04-16T08:58:24.132Z,8660.00
2018-04-16T08:59:24.155Z,8364.00
2018-04-16T09:00:24.077Z,8256.00
2018-04-16T09:01:24.145Z,8384.00
2018-04-16T09:02:24.025Z,8776.00
2018-04-16T09:03:24.005Z,9424.00
2018-04-16T09:04:24.009Z,10228.00
2018-04-16T09:05:23.959Z,11044.00
2018-04-16T09:06:23.928Z,11760.00
2018-04-16T09:07:23.909Z,12320.00
2018-04-16T09:08:23.918Z,12700.00
2018-04-16T09:09:23.891Z,12980.00
2018-04-16T09:10:23.827Z,13300.00
2018-04-16T09:11:24.110Z,13616.00
2018-04-16T09:12:23.772Z,13816.00
2018-04-16T09:13:23.753Z,14000.00
2018-04-16T09:14:23.719Z,14260.00
2018-04-16T09:15:23.703Z,14560.00
2018-04-16T09:16:23.727Z,15024.00
2018-04-16T09:17:23.657Z,15344.00
2018-04-16T09:18:23.616Z,15432.00
2018-04-16T09:19:23.594Z,15504.00
2018-04-16T09:20:23.571Z,15364.00
2018-04-16T09:21:23.585Z,15292.00
2018-04-16T09:22:23.528Z,15144.00
2018-04-16T09:23:23.496Z,14948.00
2018-04-16T09:24:23.517Z,14744.00
2018-04-16T09:25:23.446Z,14628.00
2018-04-16T09:26:23.422Z,14532.00
2018-04-16T09:27:23.405Z,14376.00
2018-04-16T09:28:23.379Z,14196.00
2018-04-16T09:29:23.393Z,13980.00
2018-04-16T09:30:23.392Z,13692.00
2018-04-16T09:31:23.300Z,13408.00
2018-04-16T09:32:23.283Z,13148.00
2018-04-16T09:33:23.270Z,12948.00
2018-04-16T09:34:23.230Z,12844.00
2018-04-16T09:35:23.242Z,12852.00
2018-04-16T09:36:23.226Z,12964.00
2018-04-16T09:37:23.167Z,13164.00
2018-04-16T09:38:23.168Z,13480.00
2018-04-16T09:39:23.110Z,13872.00
2018-04-16T09:40:23.123Z,14276.00
2018-04-16T09:41:23.105Z,14720.00
2018-04-16T09:42:23.043Z,15248.00
2018-04-16T09:43:23.015Z,15752.00
2018-04-16T09:44:22.996Z,16004.00
2018-04-16T09:45:22.967Z,15844.00
2018-04-16T09:46:22.987Z,15444.00
2018-04-16T09:47:22.920Z,14928.00
2018-04-16T09:48:22.901Z,14484.00
2018-04-16T09:49:22.870Z,14108.00
2018-04-16T09:50:22.873Z,13764.00
2018-04-16T09:51:22.876Z,13520.00
2018-04-16T09:52:22.801Z,13428.00
2018-04-16T09:53:22.776Z,13480.00
2018-04-16T09:54:22.753Z,13712.00
2018-04-16T09:55:22.730Z,14156.00
2018-04-16T09:56:22.736Z,14800.00
2018-04-16T09:57:22.684Z,15492.00
2018-04-16T09:58:22.662Z,16036.00
2018-04-16T09:59:22.644Z,16284.00
2018-04-16T10:00:22.645Z,16264.00
2018-04-16T10:01:22.638Z,16088.00
2018-04-16T10:02:22.568Z,15908.00
2018-04-16T10:03:22.545Z,15688.00
2018-04-16T10:04:22.525Z,15452.00
2018-04-16T10:05:22.508Z,15260.00
2018-04-16T10:06:22.529Z,15140.00
2018-04-16T10:07:22.476Z,15100.00
2018-04-16T10:08:22.435Z,15108.00
2018-04-16T10:09:22.409Z,15136.00
2018-04-16T10:10:22.396Z,15136.00
2018-04-16T10:11:22.412Z,15096.00
2018-04-16T10:12:22.347Z,15036.00
2018-04-16T10:13:22.360Z,15024.00
2018-04-16T10:14:22.294Z,15056.00
2018-04-16T10:15:22.274Z,15144.00
2018-04-16T10:16:22.249Z,15308.00
2018-04-16T10:17:22.234Z,15576.00
2018-04-16T10:18:22.248Z,15948.00
2018-04-16T10:19:22.188Z,16372.00
2018-04-16T10:20:22.162Z,16960.00
2018-04-16T10:21:22.142Z,17312.00
2018-04-16T10:22:22.151Z,17504.00
2018-04-16T10:23:22.138Z,17536.00
2018-04-16T10:24:22.099Z,17408.00
2018-04-16T10:25:22.054Z,17216.00
2018-04-16T10:26:22.034Z,17024.00
2018-04-16T10:27:22.009Z,16864.00
2018-04-16T10:28:22.060Z,16800.00
2018-04-16T10:29:21.964Z,16592.00
2018-04-16T10:30:21.935Z,16800.00
2018-04-16T10:31:21.915Z,16576.00
2018-04-16T10:32:21.909Z,16928.00
2018-04-16T10:33:21.957Z,17184.00
2018-04-16T10:34:21.852Z,17248.00
2018-04-16T10:35:21.825Z,17184.00
2018-04-16T10:36:21.809Z,16960.00
2018-04-16T10:37:21.782Z,16516.00
2018-04-16T10:38:21.795Z,17088.00
2018-04-16T10:39:21.738Z,17568.00
2018-04-16T10:40:21.711Z,18016.00
2018-04-16T10:41:21.733Z,18368.00
2018-04-16T10:42:21.673Z,18752.00
2018-04-16T10:43:21.656Z,19296.00
2018-04-16T10:44:21.626Z,19776.00
2018-04-16T10:45:21.710Z,20128.00
2018-04-16T10:46:21.619Z,20192.00
2018-04-16T10:47:21.556Z,20096.00
2018-04-16T10:48:21.544Z,19968.00
2018-04-16T10:49:21.514Z,19840.00
2018-04-16T10:50:21.527Z,19488.00
2018-04-16T10:51:21.479Z,19168.00
2018-04-16T10:52:21.450Z,18976.00
2018-04-16T10:53:21.424Z,19040.00
2018-04-16T10:54:21.409Z,19200.00
2018-04-16T10:55:21.418Z,19456.00
2018-04-16T10:56:21.361Z,19744.00
2018-04-16T10:57:21.337Z,20160.00
2018-04-16T10:58:21.315Z,20576.00
2018-04-16T10:59:21.306Z,21024.00
2018-04-16T11:00:21.305Z,21344.00
2018-04-16T11:01:21.251Z,21568.00
2018-04-16T11:02:21.229Z,21536.00
2018-04-16T11:03:21.243Z,21184.00
2018-04-16T11:04:21.186Z,20704.00
2018-04-16T11:05:21.165Z,20352.00
2018-04-16T11:06:21.147Z,20192.00
2018-04-16T11:07:21.122Z,20096.00
2018-04-16T11:08:21.129Z,20032.00
2018-04-16T11:09:21.083Z,20096.00
2018-04-16T11:10:21.060Z,20032.00
2018-04-16T11:11:21.062Z,19648.00
2018-04-16T11:12:21.053Z,19520.00
2018-04-16T11:13:20.992Z,19520.00
2018-04-16T11:14:20.970Z,19392.00
2018-04-16T11:15:20.956Z,19264.00
2018-04-16T11:16:20.962Z,19104.00
2018-04-16T11:17:20.938Z,18880.00
2018-04-16T11:18:20.885Z,18592.00
2018-04-16T11:19:20.863Z,18240.00
2018-04-16T11:20:20.843Z,17856.00
2018-04-16T11:21:20.857Z,17472.00
2018-04-16T11:22:20.796Z,17024.00
2018-04-16T11:23:20.813Z,16328.00
2018-04-16T11:24:20.755Z,15784.00
2018-04-16T11:25:20.732Z,15244.00
2018-04-16T11:26:20.708Z,14836.00
2018-04-16T11:27:20.727Z,14660.00
2018-04-16T11:28:20.678Z,14692.00
2018-04-16T11:29:20.675Z,14752.00
2018-04-16T11:30:20.626Z,14584.00
2018-04-16T11:31:20.641Z,14076.00
2018-04-16T11:32:20.632Z,13400.00
2018-04-16T11:33:20.639Z,12724.00
2018-04-16T11:34:20.532Z,12168.00
2018-04-16T11:35:20.514Z,11844.00
2018-04-16T11:36:20.489Z,11904.00
2018-04-16T11:37:20.473Z,12368.00
2018-04-16T11:38:20.480Z,13000.00
2018-04-16T11:39:20.457Z,13384.00
2018-04-16T11:40:20.432Z,13396.00
2018-04-16T11:41:20.379Z,13228.00
2018-04-16T11:42:20.394Z,13108.00
2018-04-16T11:43:20.336Z,13224.00
2018-04-16T11:44:20.312Z,13416.00
2018-04-16T11:45:20.293Z,13412.00
2018-04-16T11:46:20.265Z,13076.00
2018-04-16T11:47:20.283Z,12544.00
2018-04-16T11:48:20.235Z,11940.00
2018-04-16T11:49:20.203Z,11464.00
2018-04-16T11:50:20.174Z,11156.00
2018-04-16T11:51:20.155Z,10876.00
2018-04-16T11:52:20.168Z,10616.00
2018-04-16T11:53:20.108Z,10480.00
2018-04-16T11:54:20.130Z,10360.00
2018-04-16T11:55:20.064Z,10308.00
2018-04-16T11:56:20.048Z,10332.00
2018-04-16T11:57:20.052Z,10368.00
2018-04-16T11:58:19.999Z,10392.00
2018-04-16T11:59:20.006Z,10372.00
2018-04-16T12:00:19.950Z,10332.00
2018-04-16T12:01:19.924Z,10228.00
2018-04-16T12:02:19.898Z,10072.00
2018-04-16T12:03:19.917Z,9920.00
2018-04-16T12:04:19.879Z,9808.00
2018-04-16T12:05:19.830Z,9760.00
2018-04-16T12:06:19.808Z,9736.00
2018-04-16T12:07:19.786Z,9816.00
2018-04-16T12:08:19.808Z,9972.00
2018-04-16T12:09:19.771Z,10116.00
2018-04-16T12:10:19.719Z,10240.00
2018-04-16T12:11:19.688Z,10332.00
2018-04-16T12:12:19.665Z,10348.00
2018-04-16T12:13:19.647Z,10280.00
2018-04-16T12:14:19.692Z,10164.00
2018-04-16T12:15:19.596Z,10124.00
2018-04-16T12:16:19.571Z,10124.00
2018-04-16T12:17:19.552Z,10052.00
2018-04-16T12:18:19.533Z,9816.00
2018-04-16T12:19:19.550Z,9524.00
2018-04-16T12:20:19.479Z,9204.00
2018-04-16T12:21:19.460Z,8880.00
2018-04-16T12:22:19.466Z,8652.00
2018-04-16T12:23:19.409Z,8488.00
2018-04-16T12:24:19.430Z,8404.00